createdAt,value
2022-12-18T00:01:29.057Z,86.21
2022-12-18T00:03:57.461Z,86.09
2022-12-18T00:06:26.110Z,85.86
2022-12-18T00:08:54.046Z,85.48
2022-12-18T00:11:24.369Z,85.49
2022-12-18T00:13:52.221Z,85.53
2022-12-18T00:16:22.064Z,85.54
2022-12-18T00:18:50.617Z,85.75
2022-12-18T00:21:17.634Z,85.60
2022-12-18T00:23:46.251Z,84.64
2022-12-18T00:26:28.665Z,85.05
2022-12-18T00:28:57.864Z,84.98
2022-12-18T00:31:26.235Z,84.43
2022-12-18T00:33:58.226Z,85.06
2022-12-18T00:36:28.907Z,84.60
2022-12-18T00:38:57.447Z,85.12
2022-12-18T00:41:44.063Z,85.44
2022-12-18T00:44:13.864Z,85.27
2022-12-18T00:46:42.031Z,84.61
2022-12-18T00:49:09.024Z,84.50
2022-12-18T00:51:35.910Z,84.12
2022-12-18T00:54:02.968Z,84.77
2022-12-18T00:56:29.975Z,84.20
2022-12-18T00:58:56.963Z,84.43
2022-12-18T01:01:24.031Z,83.96
2022-12-18T01:03:51.041Z,84.32
2022-12-18T01:06:18.340Z,84.28
2022-12-18T01:08:45.905Z,83.71
2022-12-18T01:11:15.969Z,82.82
2022-12-18T01:13:43.847Z,83.64
2022-12-18T01:16:14.022Z,82.96
2022-12-18T01:18:41.223Z,82.97
2022-12-18T01:21:10.178Z,83.13
2022-12-18T01:23:37.778Z,83.07
2022-12-18T01:26:14.848Z,83.48
2022-12-18T01:28:42.546Z,82.96
2022-12-18T01:31:35.795Z,82.54
2022-12-18T01:34:04.288Z,83.26
2022-12-18T01:36:35.922Z,82.89
2022-12-18T01:39:06.071Z,83.16
2022-12-18T01:41:52.912Z,82.82
2022-12-18T01:44:57.196Z,82.51
2022-12-18T01:47:38.270Z,82.81
2022-12-18T01:50:26.956Z,83.09
2022-12-18T01:53:14.317Z,83.41
2022-12-18T01:56:00.576Z,83.34
2022-12-18T01:58:55.024Z,82.28
2022-12-18T02:01:25.003Z,82.29
2022-12-18T02:03:52.693Z,82.20
2022-12-18T02:06:35.636Z,82.45
2022-12-18T02:09:35.164Z,82.75
2022-12-18T02:12:37.566Z,82.70
2022-12-18T02:15:57.655Z,82.93
2022-12-18T02:18:51.346Z,82.66
2022-12-18T02:22:02.426Z,82.67
2022-12-18T02:24:59.015Z,82.49
2022-12-18T02:27:50.202Z,83.41
2022-12-18T02:30:18.162Z,82.80
2022-12-18T02:32:50.854Z,82.68
2022-12-18T02:35:26.545Z,82.45
2022-12-18T02:37:57.818Z,82.60
2022-12-18T02:40:28.353Z,82.11
2022-12-18T02:42:55.620Z,83.64
2022-12-18T02:45:22.486Z,83.20
2022-12-18T02:47:51.055Z,82.92
2022-12-18T02:50:28.217Z,82.91
2022-12-18T02:53:14.846Z,81.90
2022-12-18T02:55:47.468Z,82.42
2022-12-18T02:58:42.803Z,82.59
2022-12-18T03:02:05.503Z,82.80
2022-12-18T03:04:49.356Z,82.69
2022-12-18T03:07:22.976Z,82.46
2022-12-18T03:09:52.861Z,82.92
2022-12-18T03:12:25.440Z,83.47
2022-12-18T03:15:05.003Z,83.14
2022-12-18T03:17:34.865Z,82.80
2022-12-18T03:20:17.585Z,82.96
2022-12-18T03:22:47.728Z,83.59
2022-12-18T03:25:16.928Z,83.39
2022-12-18T03:27:49.387Z,82.67
2022-12-18T03:30:17.911Z,83.58
2022-12-18T03:33:00.133Z,83.10
2022-12-18T03:35:33.146Z,82.62
2022-12-18T03:38:00.139Z,82.32
2022-12-18T03:40:57.426Z,82.98
2022-12-18T03:43:40.170Z,83.26
2022-12-18T03:46:18.956Z,83.33
2022-12-18T03:48:54.012Z,83.78
2022-12-18T03:51:50.602Z,84.40
2022-12-18T03:54:19.294Z,83.42
2022-12-18T03:56:52.757Z,83.63
2022-12-18T03:59:20.872Z,82.94
2022-12-18T04:01:53.310Z,83.20
2022-12-18T04:04:21.737Z,83.85
2022-12-18T04:06:50.820Z,84.14
2022-12-18T04:09:17.895Z,83.63
2022-12-18T04:11:47.519Z,83.69
2022-12-18T04:14:18.005Z,83.52
2022-12-18T04:16:45.548Z,83.85
2022-12-18T04:19:12.433Z,83.77
2022-12-18T04:21:39.398Z,84.47
2022-12-18T04:24:06.556Z,84.16
2022-12-18T04:26:36.336Z,84.04
2022-12-18T04:29:03.637Z,84.34
2022-12-18T04:31:30.646Z,84.20
2022-12-18T04:33:57.632Z,84.49
2022-12-18T04:36:27.254Z,84.02
2022-12-18T04:38:54.219Z,83.88
2022-12-18T04:41:21.155Z,83.97
2022-12-18T04:43:48.156Z,84.16
2022-12-18T04:46:15.133Z,84.68
2022-12-18T04:48:42.203Z,83.91
2022-12-18T04:51:09.091Z,84.62
2022-12-18T04:53:36.069Z,83.77
2022-12-18T04:56:12.190Z,84.03
2022-12-18T04:58:40.858Z,84.09
2022-12-18T05:01:08.795Z,83.70
2022-12-18T05:03:37.264Z,84.13
2022-12-18T05:06:05.992Z,84.00
2022-12-18T05:08:34.141Z,83.93
2022-12-18T05:11:02.950Z,84.47
2022-12-18T05:13:30.410Z,84.23
2022-12-18T05:15:57.522Z,84.76
2022-12-18T05:18:25.469Z,83.95
2022-12-18T05:20:53.137Z,83.75
2022-12-18T05:23:21.182Z,83.67
2022-12-18T05:25:56.202Z,84.88
2022-12-18T05:28:24.680Z,84.86
2022-12-18T05:30:55.294Z,84.77
2022-12-18T05:33:24.248Z,84.89
2022-12-18T05:35:58.930Z,84.60
2022-12-18T05:38:27.251Z,84.56
2022-12-18T05:40:54.531Z,84.42
2022-12-18T05:43:23.570Z,84.39
2022-12-18T05:45:51.414Z,84.51
2022-12-18T05:48:18.982Z,84.61
2022-12-18T05:50:47.831Z,84.56
2022-12-18T05:53:17.437Z,83.86
2022-12-18T05:55:45.388Z,84.55
2022-12-18T05:58:13.930Z,84.40
2022-12-18T06:00:42.811Z,84.68
2022-12-18T06:03:11.300Z,83.96
2022-12-18T06:05:44.393Z,84.19
2022-12-18T06:08:12.953Z,84.59
2022-12-18T06:10:40.571Z,84.92
2022-12-18T06:13:08.406Z,84.49
2022-12-18T06:15:38.443Z,84.14
2022-12-18T06:18:05.589Z,84.94
2022-12-18T06:20:33.932Z,85.02
2022-12-18T06:23:01.447Z,84.53
2022-12-18T06:25:28.749Z,84.57
2022-12-18T06:27:55.860Z,84.77
2022-12-18T06:30:22.786Z,84.51
2022-12-18T06:32:54.675Z,84.87
2022-12-18T06:35:23.921Z,84.13
2022-12-18T06:37:50.817Z,84.72
2022-12-18T06:40:17.916Z,84.19
2022-12-18T06:42:44.833Z,84.40
2022-12-18T06:45:12.699Z,84.12
2022-12-18T06:47:39.696Z,83.94
2022-12-18T06:50:07.105Z,84.22
2022-12-18T06:52:34.765Z,83.80
2022-12-18T06:55:02.245Z,83.54
2022-12-18T06:57:29.269Z,84.11
2022-12-18T06:59:56.214Z,84.01
2022-12-18T07:02:23.244Z,83.74
2022-12-18T07:04:50.243Z,84.57
2022-12-18T07:07:17.253Z,84.44
2022-12-18T07:09:44.200Z,84.16
2022-12-18T07:12:11.121Z,84.14
2022-12-18T07:14:38.031Z,83.54
2022-12-18T07:17:04.974Z,83.86
2022-12-18T07:19:33.457Z,83.94
2022-12-18T07:22:00.674Z,83.94
2022-12-18T07:24:27.772Z,83.83
2022-12-18T07:26:54.731Z,83.80
2022-12-18T07:29:22.159Z,83.53
2022-12-18T07:31:49.147Z,83.83
2022-12-18T07:34:16.448Z,83.71
2022-12-18T07:36:43.932Z,82.60
2022-12-18T07:39:12.392Z,83.37
2022-12-18T07:41:45.203Z,83.32
2022-12-18T07:44:13.994Z,82.82
2022-12-18T07:46:40.932Z,83.23
2022-12-18T07:49:08.162Z,82.07
2022-12-18T07:51:35.061Z,82.19
2022-12-18T07:54:02.092Z,81.66
2022-12-18T07:56:31.454Z,81.22
2022-12-18T07:59:00.391Z,80.64
2022-12-18T08:01:28.144Z,81.22
2022-12-18T08:03:55.348Z,80.82
2022-12-18T08:06:24.350Z,79.32
2022-12-18T08:08:56.406Z,78.96
2022-12-18T08:11:25.737Z,78.83
2022-12-18T08:13:53.463Z,78.49
2022-12-18T08:16:20.919Z,78.13
2022-12-18T08:18:48.558Z,78.06
2022-12-18T08:21:20.811Z,76.87
2022-12-18T08:23:48.794Z,77.09
2022-12-18T08:26:16.257Z,75.75
2022-12-18T08:28:43.684Z,76.15
2022-12-18T08:31:11.301Z,74.62
2022-12-18T08:33:40.725Z,74.31
2022-12-18T08:36:09.917Z,74.16
2022-12-18T08:38:37.068Z,74.24
2022-12-18T08:41:06.324Z,74.17
2022-12-18T08:43:51.545Z,75.22
2022-12-18T08:46:20.555Z,74.61
2022-12-18T08:48:48.621Z,75.07
2022-12-18T08:51:18.416Z,72.79
2022-12-18T08:53:45.878Z,71.93
2022-12-18T08:56:13.915Z,71.57
2022-12-18T08:58:41.147Z,71.42
2022-12-18T09:01:10.803Z,72.53
2022-12-18T09:03:39.039Z,72.66
2022-12-18T09:06:06.851Z,72.84
2022-12-18T09:08:38.320Z,70.88
2022-12-18T09:11:05.640Z,71.05
2022-12-18T09:13:32.588Z,71.44
2022-12-18T09:15:59.670Z,72.04
2022-12-18T09:18:26.583Z,70.43
2022-12-18T09:20:54.197Z,70.01
2022-12-18T09:23:22.163Z,70.63
2022-12-18T09:25:49.620Z,71.14
2022-12-18T09:28:19.215Z,71.24
2022-12-18T09:30:50.780Z,70.92
2022-12-18T09:33:18.624Z,69.38
2022-12-18T09:35:47.337Z,70.88
2022-12-18T09:38:18.070Z,71.66
2022-12-18T09:40:55.357Z,72.65
2022-12-18T09:43:45.519Z,73.04
2022-12-18T09:46:20.844Z,75.71
2022-12-18T09:48:52.069Z,74.42
2022-12-18T09:51:31.192Z,75.22
2022-12-18T09:54:15.618Z,76.02
2022-12-18T09:56:44.743Z,74.83
2022-12-18T09:59:41.132Z,75.02
2022-12-18T10:02:22.653Z,73.79
2022-12-18T10:05:11.696Z,73.96
2022-12-18T10:07:52.998Z,73.06
2022-12-18T10:10:19.826Z,75.07
2022-12-18T10:13:14.732Z,72.98
2022-12-18T10:16:00.053Z,72.84
2022-12-18T10:19:08.702Z,72.46
2022-12-18T10:21:47.233Z,70.53
2022-12-18T10:24:37.241Z,70.64
2022-12-18T10:27:18.960Z,69.11
2022-12-18T10:29:47.084Z,69.65
2022-12-18T10:32:26.176Z,68.74
2022-12-18T10:35:00.097Z,69.78
2022-12-18T10:37:30.604Z,71.16
2022-12-18T10:40:21.873Z,70.39
2022-12-18T10:43:14.480Z,71.55
2022-12-18T10:45:42.261Z,69.61
2022-12-18T10:48:21.467Z,69.45
2022-12-18T10:53:43.004Z,70.81
2022-12-18T10:56:10.194Z,71.89
2022-12-18T10:58:40.520Z,70.67
2022-12-18T11:01:07.871Z,70.42
2022-12-18T11:03:38.776Z,70.58
2022-12-18T11:06:21.420Z,70.49
2022-12-18T11:09:00.963Z,70.42
2022-12-18T11:11:29.207Z,71.09
2022-12-18T11:14:08.142Z,69.14
2022-12-18T11:16:57.862Z,69.67
2022-12-18T11:19:41.117Z,70.73
2022-12-18T11:22:29.146Z,71.88
2022-12-18T11:25:32.163Z,69.36
2022-12-18T11:28:26.010Z,67.22
2022-12-18T11:31:11.787Z,67.77
2022-12-18T11:33:58.684Z,65.79
2022-12-18T11:36:48.277Z,66.24
2022-12-18T11:39:30.762Z,65.40
2022-12-18T11:42:11.238Z,65.90
2022-12-18T11:44:52.674Z,67.28
2022-12-18T11:47:40.968Z,65.81
2022-12-18T11:50:49.781Z,66.17
2022-12-18T11:53:17.198Z,67.26
2022-12-18T11:56:08.533Z,67.63
2022-12-18T11:58:54.280Z,68.17
2022-12-18T12:01:50.125Z,68.93
2022-12-18T12:04:35.299Z,69.20
2022-12-18T12:07:38.942Z,69.29
2022-12-18T12:10:08.748Z,69.54
2022-12-18T12:12:48.863Z,68.89
2022-12-18T12:15:31.487Z,68.88
2022-12-18T12:18:30.561Z,70.21
2022-12-18T12:21:06.316Z,70.23
2022-12-18T12:23:39.376Z,70.24
2022-12-18T12:26:15.254Z,70.33
2022-12-18T12:29:21.150Z,71.40
2022-12-18T12:31:57.310Z,71.59
2022-12-18T12:34:31.399Z,71.80
2022-12-18T12:37:06.332Z,71.42
2022-12-18T12:39:40.708Z,72.07
2022-12-18T12:42:39.813Z,73.14
2022-12-18T12:45:16.462Z,73.10
2022-12-18T12:47:48.263Z,73.90
2022-12-18T12:50:20.330Z,74.97
2022-12-18T12:52:52.328Z,74.25
2022-12-18T12:55:29.122Z,74.98
2022-12-18T12:58:14.395Z,75.64
2022-12-18T13:00:59.693Z,75.96
2022-12-18T13:04:05.124Z,76.15
2022-12-18T13:06:42.940Z,76.09
2022-12-18T13:09:11.610Z,76.11
2022-12-18T13:12:00.376Z,75.79
2022-12-18T13:14:37.271Z,76.23
2022-12-18T13:17:22.414Z,76.27
2022-12-18T13:20:03.734Z,76.22
2022-12-18T13:22:36.170Z,77.04
2022-12-18T13:25:04.532Z,77.96
2022-12-18T13:27:58.322Z,77.76
2022-12-18T13:30:34.338Z,78.61
2022-12-18T13:33:17.749Z,79.34
2022-12-18T13:35:47.450Z,78.96
2022-12-18T13:38:39.139Z,78.10
2022-12-18T13:41:09.129Z,79.69
2022-12-18T13:43:47.014Z,79.95
2022-12-18T13:46:25.407Z,78.55
2022-12-18T13:49:24.090Z,79.04
2022-12-18T13:51:54.792Z,78.75
2022-12-18T13:54:43.593Z,80.55
2022-12-18T13:57:29.844Z,81.81
2022-12-18T13:59:58.008Z,83.14
2022-12-18T14:02:28.447Z,82.40
2022-12-18T14:04:56.661Z,81.74
2022-12-18T14:07:26.564Z,81.20
2022-12-18T14:10:12.661Z,80.99
2022-12-18T14:12:59.175Z,80.15
2022-12-18T14:15:38.190Z,82.35
2022-12-18T14:18:23.137Z,83.98
2022-12-18T14:20:59.082Z,85.81
2022-12-18T14:23:36.588Z,85.75
2022-12-18T14:26:24.898Z,86.50
2022-12-18T14:28:52.122Z,87.54
2022-12-18T14:31:21.270Z,88.25
2022-12-18T14:33:48.326Z,87.65
2022-12-18T14:36:21.564Z,86.51
2022-12-18T14:38:53.224Z,87.21
2022-12-18T14:41:21.004Z,87.08
2022-12-18T14:43:50.751Z,87.05
2022-12-18T14:46:35.741Z,88.47
2022-12-18T14:49:06.066Z,88.54
2022-12-18T14:51:35.447Z,87.96
2022-12-18T14:54:04.113Z,88.62
2022-12-18T14:56:36.739Z,87.66
2022-12-18T14:59:06.946Z,87.51
2022-12-18T15:01:40.743Z,86.10
2022-12-18T15:04:26.717Z,85.85
2022-12-18T15:07:15.083Z,85.71
2022-12-18T15:10:04.213Z,87.07
2022-12-18T15:12:37.216Z,86.08
2022-12-18T15:15:06.274Z,86.10
2022-12-18T15:17:33.252Z,86.15
2022-12-18T15:20:03.724Z,86.97
2022-12-18T15:22:35.267Z,89.07
2022-12-18T15:25:02.863Z,89.25
2022-12-18T15:27:36.948Z,86.82
2022-12-18T15:30:06.720Z,88.68
2022-12-18T15:32:33.740Z,88.35
2022-12-18T15:35:17.423Z,89.13
2022-12-18T15:37:45.335Z,89.25
2022-12-18T15:40:24.068Z,89.84
2022-12-18T15:43:13.903Z,89.43
2022-12-18T15:45:41.166Z,90.04
2022-12-18T15:48:21.887Z,93.46
2022-12-18T15:50:49.776Z,94.69
2022-12-18T15:53:16.719Z,96.13
2022-12-18T15:56:02.328Z,95.58
2022-12-18T15:58:30.003Z,94.61
2022-12-18T16:00:59.663Z,94.75
2022-12-18T16:03:26.657Z,94.07
2022-12-18T16:05:53.694Z,94.58
2022-12-18T16:08:21.283Z,94.42
2022-12-18T16:10:48.302Z,92.41
2022-12-18T16:13:20.279Z,92.10
2022-12-18T16:15:47.476Z,92.24
2022-12-18T16:18:14.446Z,90.46
2022-12-18T16:20:41.949Z,90.08
2022-12-18T16:23:08.960Z,88.95
2022-12-18T16:25:35.941Z,88.65
2022-12-18T16:28:02.952Z,88.36
2022-12-18T16:30:32.727Z,87.81
2022-12-18T16:33:05.381Z,89.87
2022-12-18T16:35:33.750Z,89.01
2022-12-18T16:38:00.667Z,87.34
2022-12-18T16:40:27.710Z,88.20
2022-12-18T16:42:54.619Z,88.30
2022-12-18T16:45:21.683Z,88.55
2022-12-18T16:47:48.704Z,92.44
2022-12-18T16:50:15.621Z,94.33
2022-12-18T16:52:42.630Z,93.65
2022-12-18T16:55:10.312Z,93.11
2022-12-18T16:57:37.288Z,93.42
2022-12-18T17:00:06.167Z,94.12
2022-12-18T17:02:36.324Z,91.87
2022-12-18T17:05:03.515Z,90.92
2022-12-18T17:07:30.654Z,90.05
2022-12-18T17:09:58.245Z,92.07
2022-12-18T17:12:25.320Z,91.38
2022-12-18T17:14:52.710Z,91.70
2022-12-18T17:17:23.075Z,92.43
2022-12-18T17:19:52.496Z,92.41
2022-12-18T17:22:20.291Z,90.91
2022-12-18T17:24:48.174Z,90.53
2022-12-18T17:27:15.416Z,90.65
2022-12-18T17:29:47.194Z,90.54
2022-12-18T17:32:15.213Z,90.97
2022-12-18T17:34:42.189Z,90.12
2022-12-18T17:37:09.688Z,91.39
2022-12-18T17:39:36.882Z,90.19
2022-12-18T17:42:04.224Z,90.85
2022-12-18T17:44:34.513Z,91.13
2022-12-18T17:47:01.752Z,90.59
2022-12-18T17:49:28.877Z,90.84
2022-12-18T17:51:55.964Z,90.57
2022-12-18T17:54:22.853Z,89.92
2022-12-18T17:56:49.744Z,89.72
2022-12-18T17:59:16.756Z,90.14
2022-12-18T18:01:45.328Z,90.46
2022-12-18T18:04:14.122Z,88.96
2022-12-18T18:06:41.246Z,87.25
2022-12-18T18:09:17.009Z,85.49
2022-12-18T18:12:03.943Z,86.11
2022-12-18T18:14:31.594Z,85.13
2022-12-18T18:17:02.006Z,86.40
2022-12-18T18:19:32.466Z,85.95
2022-12-18T18:21:59.386Z,86.38
2022-12-18T18:24:26.366Z,85.88
2022-12-18T18:26:53.633Z,85.94
2022-12-18T18:29:26.902Z,85.90
2022-12-18T18:31:54.549Z,86.35
2022-12-18T18:34:25.875Z,86.54
2022-12-18T18:36:52.862Z,86.68
2022-12-18T18:39:20.584Z,86.55
2022-12-18T18:41:48.751Z,86.29
2022-12-18T18:44:24.400Z,85.11
2022-12-18T18:46:57.820Z,84.50
2022-12-18T18:49:27.983Z,85.32
2022-12-18T18:51:57.457Z,87.33
2022-12-18T18:54:25.773Z,87.66
2022-12-18T18:59:39.992Z,87.05
2022-12-18T19:02:09.500Z,86.54
2022-12-18T19:04:38.900Z,85.92
2022-12-18T19:07:13.542Z,86.04
2022-12-18T19:09:42.666Z,87.17
2022-12-18T19:12:28.481Z,87.95
2022-12-18T19:14:55.606Z,86.32
2022-12-18T19:17:26.418Z,87.09
2022-12-18T19:19:56.609Z,87.42
2022-12-18T19:22:24.120Z,86.97
2022-12-18T19:24:50.991Z,87.58
2022-12-18T19:27:17.988Z,88.17
2022-12-18T19:29:45.145Z,87.51
2022-12-18T19:32:12.301Z,86.71
2022-12-18T19:34:40.063Z,87.75
2022-12-18T19:37:07.235Z,87.30
2022-12-18T19:39:34.162Z,86.75
2022-12-18T19:42:01.061Z,87.74
2022-12-18T19:44:27.995Z,84.97
2022-12-18T19:46:54.949Z,85.57
2022-12-18T19:49:21.840Z,85.48
2022-12-18T19:51:50.284Z,87.59
2022-12-18T19:54:18.017Z,86.19
2022-12-18T19:56:45.564Z,86.44
2022-12-18T19:59:13.696Z,85.68
2022-12-18T20:01:41.328Z,85.43
2022-12-18T20:04:08.487Z,85.66
2022-12-18T20:06:47.012Z,85.90
2022-12-18T20:09:14.143Z,86.83
2022-12-18T20:11:41.962Z,86.68
2022-12-18T20:14:10.932Z,85.17
2022-12-18T20:16:38.411Z,86.31
2022-12-18T20:19:06.101Z,86.72
2022-12-18T20:21:33.618Z,86.88
2022-12-18T20:24:01.538Z,87.14
2022-12-18T20:26:28.737Z,86.88
2022-12-18T20:28:56.332Z,87.07
2022-12-18T20:31:24.110Z,85.32
2022-12-18T20:33:52.215Z,83.92
2022-12-18T20:36:22.633Z,83.57
2022-12-18T20:38:54.640Z,82.01
2022-12-18T20:41:24.596Z,80.50
2022-12-18T20:43:51.968Z,82.49
2022-12-18T20:46:19.176Z,82.44
2022-12-18T20:48:47.939Z,83.18
2022-12-18T20:51:17.529Z,83.07
2022-12-18T20:53:45.880Z,86.11
2022-12-18T20:56:22.067Z,87.73
2022-12-18T20:58:51.770Z,86.84
2022-12-18T21:01:23.668Z,87.66
2022-12-18T21:03:51.590Z,84.80
2022-12-18T21:06:20.569Z,84.61
2022-12-18T21:08:48.288Z,83.92
2022-12-18T21:11:39.584Z,84.53
2022-12-18T21:14:28.159Z,86.82
2022-12-18T21:16:56.303Z,89.23
2022-12-18T21:19:27.797Z,86.31
2022-12-18T21:21:56.624Z,83.71
2022-12-18T21:24:24.097Z,83.05
2022-12-18T21:26:51.534Z,81.25
2022-12-18T21:29:21.707Z,80.41
2022-12-18T21:31:49.570Z,81.70
2022-12-18T21:34:23.027Z,82.39
2022-12-18T21:36:50.244Z,83.52
2022-12-18T21:39:17.909Z,84.43
2022-12-18T21:42:05.600Z,84.31
2022-12-18T21:44:35.698Z,83.15
2022-12-18T21:47:21.687Z,83.13
2022-12-18T21:49:51.400Z,86.04
2022-12-18T21:52:18.297Z,86.54
2022-12-18T21:54:45.243Z,85.03
2022-12-18T21:57:13.682Z,84.18
2022-12-18T21:59:42.766Z,85.67
2022-12-18T22:02:16.610Z,86.39
2022-12-18T22:04:45.388Z,87.46
2022-12-18T22:07:13.771Z,90.43
2022-12-18T22:09:40.753Z,91.01
2022-12-18T22:12:09.202Z,92.25
2022-12-18T22:14:36.570Z,93.26
2022-12-18T22:17:03.527Z,95.08
2022-12-18T22:19:30.872Z,96.28
2022-12-18T22:21:57.817Z,98.36
2022-12-18T22:24:27.221Z,96.80
2022-12-18T22:26:54.972Z,95.49
2022-12-18T22:29:47.396Z,94.21
2022-12-18T22:32:23.417Z,93.47
2022-12-18T22:35:04.574Z,94.45
2022-12-18T22:37:34.340Z,93.07
2022-12-18T22:40:03.268Z,94.07
2022-12-18T22:42:31.767Z,93.85
2022-12-18T22:45:00.558Z,93.14
2022-12-18T22:47:30.029Z,92.20
2022-12-18T22:49:58.031Z,92.93
2022-12-18T22:52:25.285Z,92.60
2022-12-18T22:54:53.737Z,92.31
2022-12-18T22:57:21.996Z,92.42
2022-12-18T22:59:50.235Z,92.28
2022-12-18T23:02:18.268Z,92.57
2022-12-18T23:04:45.711Z,92.38
2022-12-18T23:07:12.741Z,91.32
2022-12-18T23:09:40.380Z,91.31
2022-12-18T23:12:08.197Z,90.95
2022-12-18T23:14:35.544Z,89.54
2022-12-18T23:17:02.488Z,88.92
2022-12-18T23:19:29.372Z,88.29
2022-12-18T23:21:58.895Z,87.52
2022-12-18T23:24:26.580Z,82.83
2022-12-18T23:26:53.642Z,83.72
2022-12-18T23:29:20.821Z,84.34
2022-12-18T23:31:47.819Z,85.07
2022-12-18T23:34:15.216Z,85.81
2022-12-18T23:36:46.419Z,86.31
2022-12-18T23:39:22.364Z,85.74
2022-12-18T23:41:58.260Z,87.39
2022-12-18T23:44:25.405Z,85.93
2022-12-18T23:46:53.070Z,86.71
2022-12-18T23:49:20.035Z,85.59
2022-12-18T23:51:46.956Z,86.11
2022-12-18T23:54:13.969Z,85.83
2022-12-18T23:56:41.045Z,86.44
2022-12-18T23:59:07.947Z,86.00
